Impacts METAR Board
IDs:

KMCB - McComb/Lewis Fld, MS, US

Updated at: 1000 UTC 16 Aug 2018
Potential Impact None Slight Moderate High
Time 15/22Z 15/23Z 16/00Z 16/01Z 16/02Z 16/03Z 16/04Z 16/05Z 16/06Z 16/07Z 16/08Z 16/09Z 16/10Z
Temp92 93 91 85 82 80 79 78 77 76 76 76 76
Dewpt68 68 72 72 72 73 74 73 73 73 73 72 72
Altim30.00 29.99 29.99 30.01 30.02 30.03 30.04 30.04 30.05 30.05 30.04 30.05 30.05
VIS10 10 10 10 10 10 10 10 9 7 8 8 8
CIG-- -- -- 70 -- -- -- -- -- 60 -- -- --
CoverCLRCLRCLRBKNCLRCLRCLRCLRSCTBKNFEWCLRCLR
FltCatVFRVFRVFRVFRVFRVFRVFRVFRVFRVFRVFRVFRVFR
WX--------------------------
WDir21025019016015020017018000000
WSpd4 3 3 13 4 4 6 4 0 0 0 0 0
WGst-- -- -- 18 -- -- -- -- -- -- -- -- --
Raw hourly METARs
KMCB 152153Z AUTO 21004KT 10SM CLR 33/20 A3000 RMK AO2 LTG DSNT N AND NE AND SW SLP151 T03330200
KMCB 152253Z AUTO 25003KT 10SM CLR 34/20 A2999 RMK AO2 LTG DSNT SE SLP147 T03390200
KMCB 152353Z AUTO 19003KT 10SM CLR 33/22 A2999 RMK AO2 LTG DSNT NE-S SLP149 T03280222 10350 20328 55006
KMCB 160053Z AUTO 16013G18KT 10SM BKN070 29/22 A3001 RMK AO2 SLP156 T02940222
KMCB 160153Z AUTO 15004KT 10SM CLR 28/22 A3002 RMK AO2 SLP157 T02780222
KMCB 160253Z AUTO 20004KT 10SM CLR 27/23 A3003 RMK AO2 SLP163 T02670228 52014
KMCB 160353Z AUTO 17006KT 10SM CLR 26/23 A3004 RMK AO2 SLP165 T02610233
KMCB 160453Z AUTO 18004KT 10SM CLR 26/23 A3004 RMK AO2 SLP167 T02560228
KMCB 160553Z AUTO 00000KT 9SM SCT060 25/23 A3005 RMK AO2 SLP167 T02500228 10328 20244 403500228 51004
KMCB 160653Z AUTO 00000KT 7SM BKN060 24/23 A3005 RMK AO2 SLP167 T02440228
KMCB 160753Z AUTO 00000KT 8SM FEW060 24/23 A3004 RMK AO2 SLP167 T02440228
KMCB 160853Z AUTO 00000KT 8SM CLR 24/22 A3005 RMK AO2 SLP167 T02440222 57000
KMCB 160953Z AUTO 00000KT 8SM CLR 24/22 A3005 RMK AO2 SLP169 T02440222



Page loaded:  10:25 UTC  |   03:25 AM Pacific  |   04:25 AM Mountain  |   05:25 AM Central  |   06:25 AM Eastern

 

ADVISORIES

FORECASTS

FORECASTS

OBSERVATIONS

USER TOOLS

ABOUT US